SLLP

Details ICAO SLLP (LPB)
Name El Alto Int'l
Region Bolivia
Timezone America/La_Paz (UTC-4.0)
Plans Departing 385
Arriving 389
Stats Elevation 13,312 ft / 4,058 m (AMSL)
Location -16.513300° -68.192300°
Runways 1
Magnetic Variation 8.114° W
Sunrise 2018-12-19 09:57:51 UTC / 2018-12-19 05:57:51 Local
Sunset 2018-12-19 23:04:30 UTC / 2018-12-19 19:04:30 Local
Advertisement - Login to hide

Runways

ID Width Length Bearing (true/mag) Surface Threshold Overrun Markings Lighting
10 151 ft / 46 m 13,136 ft / 4,004 m 91.90° / 100.01° CONCRETE 0 ft / 0 m 118 ft / 36 m PREC-APP EDGE THRESHOLD ALSF-I REIL-OMNI
28 151 ft / 46 m 13,136 ft / 4,004 m 271.89° / 280.00° CONCRETE 0 ft / 0 m 102 ft / 31 m PREC-APP EDGE THRESHOLD ALSF-I REIL-OMNI

Approach Navaids

Runway Type Ident Frequency Range Bearing (true/mag) Slope Elevation
10 MM MM - - 91.89° / 100.01° - 13,313 ft / 4,058 m (AMSL)
10 LOC-ILS ILPA 110.30 MHz 18 nm / 33 km 91.89° / 100.00° - 13,313 ft / 4,058 m (AMSL)
10 GS ILPA 110.30 MHz 10 nm / 19 km 92.79° / 100.90° 2.40° 13,313 ft / 4,058 m (AMSL)

Map

Weather


0- 5 10 15 20 25 30 35+ Temperature / °C

Clouds and Precipitation
Forecast for 2018-12-19 12:00 UTC. Updated 5 hours ago

Ground ~20,000 ft ~40,000 ft Winds

METAR

SLLP 191500Z 08008KT 9999 SCT017 FEW020CB SCT070 BKN200 09/05 Q1038

TAF

Not found

Frequencies

Ground 121.90 MHz
Tower 118.30 MHz
Warning: Do not use this data for real-world aviation or navigation. No guarantee of current accuracy is given.